createdAt,value
2017-11-11T00:01:42.544Z,99023.94
2017-11-11T00:07:46.810Z,99011.70
2017-11-11T00:13:50.289Z,99009.59
2017-11-11T00:19:53.775Z,99016.23
2017-11-11T00:25:57.276Z,99014.16
2017-11-11T00:32:01.453Z,99016.88
2017-11-11T00:38:04.934Z,99009.81
2017-11-11T00:44:08.724Z,99008.14
2017-11-11T00:50:12.190Z,99012.64
2017-11-11T00:56:15.694Z,99011.20
2017-11-11T01:02:19.179Z,99003.77
2017-11-11T01:08:22.673Z,99008.25
2017-11-11T01:14:27.285Z,99012.52
2017-11-11T01:20:31.552Z,99003.63
2017-11-11T01:26:35.045Z,99003.83
2017-11-11T01:32:38.542Z,98998.59
2017-11-11T01:38:42.045Z,98987.18
2017-11-11T01:44:46.296Z,98982.41
2017-11-11T01:50:49.804Z,98981.90
2017-11-11T01:56:53.305Z,98971.25
2017-11-11T02:02:57.374Z,98962.80
2017-11-11T02:09:01.147Z,98958.23
2017-11-11T02:15:04.867Z,98956.33
2017-11-11T02:21:08.471Z,98951.11
2017-11-11T02:27:12.910Z,98956.73
2017-11-11T02:33:16.477Z,98949.28
2017-11-11T02:39:20.031Z,98946.37
2017-11-11T02:45:24.366Z,98941.12
2017-11-11T02:51:28.082Z,98939.25
2017-11-11T02:57:32.792Z,98932.14
2017-11-11T03:03:37.400Z,98924.31
2017-11-11T03:09:41.615Z,98915.61
2017-11-11T03:15:46.170Z,98919.28
2017-11-11T03:21:50.134Z,98912.05
2017-11-11T03:27:54.486Z,98897.55
2017-11-11T03:33:58.114Z,98892.33
2017-11-11T03:40:03.454Z,98885.02
2017-11-11T03:46:07.070Z,98889.33
2017-11-11T03:52:11.499Z,98876.76
2017-11-11T03:58:15.928Z,98872.36
2017-11-11T04:04:19.952Z,98862.54
2017-11-11T04:10:24.475Z,98852.09
2017-11-11T04:16:28.127Z,98835.16
2017-11-11T04:22:32.160Z,98821.86
2017-11-11T04:28:36.220Z,98823.55
2017-11-11T04:34:39.796Z,98833.33
2017-11-11T04:40:44.346Z,98810.06
2017-11-11T04:46:48.042Z,98835.34
2017-11-11T04:52:52.451Z,98871.23
2017-11-11T04:58:57.740Z,98882.73
2017-11-11T05:05:01.791Z,98876.58
2017-11-11T05:11:05.795Z,98870.51
2017-11-11T05:17:10.524Z,98865.45
2017-11-11T05:23:15.992Z,98863.61
2017-11-11T05:29:19.942Z,98859.25
2017-11-11T05:35:26.869Z,98848.31
2017-11-11T05:41:31.867Z,98844.20
2017-11-11T05:47:35.472Z,98833.73
2017-11-11T05:53:39.834Z,98829.27
2017-11-11T05:59:43.811Z,98826.30
2017-11-11T06:05:47.426Z,98818.61
2017-11-11T06:11:51.294Z,98815.77
2017-11-11T06:17:56.539Z,98812.47
2017-11-11T06:24:00.529Z,98813.56
2017-11-11T06:30:04.099Z,98827.16
2017-11-11T06:36:08.488Z,98814.98
2017-11-11T06:42:12.072Z,98814.19
2017-11-11T06:48:15.899Z,98811.70
2017-11-11T06:54:20.535Z,98809.34
2017-11-11T07:00:25.817Z,98799.25
2017-11-11T07:06:29.889Z,98783.78
2017-11-11T07:12:35.177Z,98786.84
2017-11-11T07:18:39.166Z,98784.62
2017-11-11T07:24:44.235Z,98786.11
2017-11-11T07:30:48.145Z,98788.16
2017-11-11T07:36:51.938Z,98776.17
2017-11-11T07:42:55.901Z,98779.20
2017-11-11T07:49:01.235Z,98771.02
2017-11-11T07:55:07.356Z,98759.97
2017-11-11T08:01:11.472Z,98749.98
2017-11-11T08:07:17.356Z,98739.89
2017-11-11T08:29:41.261Z,98703.83
2017-11-11T08:35:44.768Z,98695.57
2017-11-11T08:41:48.286Z,98688.32
2017-11-11T08:47:51.891Z,98693.48
2017-11-11T08:53:55.434Z,98698.64
2017-11-11T08:59:58.987Z,98702.34
2017-11-11T09:06:02.827Z,98687.05
2017-11-11T09:12:06.352Z,98671.53
2017-11-11T09:18:09.851Z,98667.04
2017-11-11T09:24:13.370Z,98653.07
2017-11-11T09:30:16.859Z,98641.83
2017-11-11T09:36:20.374Z,98637.02
2017-11-11T09:42:24.630Z,98629.71
2017-11-11T09:48:28.163Z,98703.31
2017-11-11T09:54:32.309Z,98682.52
2017-11-11T10:00:35.814Z,98677.63
2017-11-11T10:06:39.332Z,98648.55
2017-11-11T10:12:43.054Z,98643.30
2017-11-11T10:18:46.584Z,98641.21
2017-11-11T10:24:50.911Z,98632.48
2017-11-11T10:30:54.439Z,98620.33
2017-11-11T10:36:57.942Z,98616.29
2017-11-11T10:43:01.476Z,98613.75
2017-11-11T10:49:05.752Z,98602.12
2017-11-11T10:55:10.034Z,98595.73
2017-11-11T11:01:13.548Z,98589.20
2017-11-11T11:07:17.107Z,98571.70
2017-11-11T11:13:20.603Z,98569.80
2017-11-11T11:19:24.107Z,98558.30
2017-11-11T11:25:27.611Z,98553.70
2017-11-11T11:31:32.071Z,98548.27
2017-11-11T11:37:35.590Z,98541.31
2017-11-11T11:43:39.866Z,98523.52
2017-11-11T11:49:43.378Z,98522.55
2017-11-11T11:55:47.649Z,98512.45
2017-11-11T12:01:51.156Z,98510.38
2017-11-11T12:07:54.661Z,98497.01
2017-11-11T12:13:58.965Z,98488.42
2017-11-11T12:20:03.289Z,98495.76
2017-11-11T12:26:06.812Z,98498.77
2017-11-11T12:32:10.359Z,98498.11
2017-11-11T12:38:13.879Z,98491.49
2017-11-11T12:44:17.426Z,98480.80
2017-11-11T12:50:20.944Z,98479.23
2017-11-11T12:56:24.454Z,98474.87
2017-11-11T13:02:27.977Z,98467.70
2017-11-11T13:08:31.571Z,98458.89
2017-11-11T13:14:35.135Z,98447.14
2017-11-11T13:20:39.423Z,98437.74
2017-11-11T13:26:42.922Z,98430.95
2017-11-11T13:32:47.214Z,98425.66
2017-11-11T13:38:51.494Z,98414.00
2017-11-11T13:44:55.011Z,98407.83
2017-11-11T13:50:59.449Z,98417.74
2017-11-11T13:57:02.994Z,98411.78
2017-11-11T14:03:07.282Z,98413.70
2017-11-11T14:09:11.093Z,98400.33
2017-11-11T14:15:15.427Z,98387.75
2017-11-11T14:21:18.950Z,98387.78
2017-11-11T14:27:23.625Z,98392.91
2017-11-11T14:33:27.137Z,98386.70
2017-11-11T14:39:30.996Z,98389.19
2017-11-11T14:45:34.508Z,98369.83
2017-11-11T14:51:38.350Z,98370.21
2017-11-11T14:57:42.620Z,98360.17
2017-11-11T15:03:46.155Z,98359.61
2017-11-11T15:09:49.682Z,98355.92
2017-11-11T15:15:53.523Z,98356.92
2017-11-11T15:21:57.793Z,98363.13
2017-11-11T15:28:01.272Z,98366.48
2017-11-11T15:34:05.174Z,98362.83
2017-11-11T15:40:08.660Z,98358.22
2017-11-11T15:46:13.037Z,98362.21
2017-11-11T15:52:17.349Z,98353.98
2017-11-11T15:58:20.858Z,98359.01
2017-11-11T16:04:24.285Z,98351.33
2017-11-11T16:10:28.005Z,98353.89
2017-11-11T16:16:31.548Z,98339.36
2017-11-11T16:22:35.016Z,98325.74
2017-11-11T16:28:38.469Z,98329.30
2017-11-11T16:34:41.943Z,98335.05
2017-11-11T16:40:45.443Z,98339.80
2017-11-11T16:46:49.009Z,98343.33
2017-11-11T16:52:52.462Z,98373.17
2017-11-11T16:58:55.928Z,98377.42
2017-11-11T17:05:00.324Z,98374.47
2017-11-11T17:11:03.787Z,98371.20
2017-11-11T17:17:07.647Z,98381.69
2017-11-11T17:23:11.078Z,98368.63
2017-11-11T17:29:16.691Z,98384.87
2017-11-11T17:35:20.408Z,98396.16
2017-11-11T17:41:25.014Z,98393.87
2017-11-11T18:03:38.521Z,98414.81
2017-11-11T18:09:42.817Z,98416.42
2017-11-11T18:15:46.811Z,98420.03
2017-11-11T18:21:50.880Z,98430.55
2017-11-11T18:27:54.400Z,98431.92
2017-11-11T18:34:04.135Z,98439.48
2017-11-11T18:59:37.801Z,98441.33
2017-11-11T19:05:41.403Z,98445.16
2017-11-11T19:27:59.940Z,98471.26
2017-11-11T19:34:03.466Z,98476.59
2017-11-11T19:40:06.982Z,98482.88
2017-11-11T19:46:10.512Z,98491.91
2017-11-11T19:52:14.290Z,98490.53
2017-11-11T19:58:18.645Z,98491.63
2017-11-11T20:04:23.550Z,98501.78
2017-11-11T20:10:28.059Z,98503.72
2017-11-11T20:16:31.616Z,98508.80
2017-11-11T20:22:36.402Z,98496.43
2017-11-11T20:28:39.922Z,98495.30
2017-11-11T20:34:45.652Z,98495.48
2017-11-11T20:40:49.478Z,98504.60
2017-11-11T20:59:53.084Z,98528.83
2017-11-11T21:05:56.631Z,98531.83
2017-11-11T21:12:00.911Z,98543.89
2017-11-11T21:18:05.661Z,98549.78
2017-11-11T21:24:09.125Z,98540.89
2017-11-11T21:30:12.671Z,98551.77
2017-11-11T21:36:16.212Z,98558.95
2017-11-11T21:42:19.999Z,98553.36
2017-11-11T21:48:24.499Z,98552.44
2017-11-11T21:54:28.099Z,98552.03
2017-11-11T22:00:31.962Z,98566.14
2017-11-11T22:06:35.487Z,98575.64
2017-11-11T22:12:39.801Z,98579.32
2017-11-11T22:18:43.333Z,98574.41
2017-11-11T22:24:46.966Z,98588.30
2017-11-11T22:30:50.552Z,98587.39
2017-11-11T22:36:54.110Z,98585.40
2017-11-11T22:42:57.648Z,98579.18
2017-11-11T22:49:01.156Z,98568.45
2017-11-11T22:55:04.727Z,98577.27
2017-11-11T23:01:08.454Z,98580.16
2017-11-11T23:20:12.108Z,98584.13
2017-11-11T23:26:16.644Z,98583.47
2017-11-11T23:32:20.224Z,98590.98
2017-11-11T23:38:24.830Z,98601.77
2017-11-11T23:44:28.402Z,98593.92
2017-11-11T23:50:32.047Z,98587.66
2017-11-11T23:56:35.611Z,98587.50
